Location Isle ofWight, ISLE OF WIGHT, UK

ob UISISLE1 251330Z AUTO 27005G07KT CLR 23/13 A3009 RMK SLPNO 

2019.05.25 1330 UTC
Wind from the W (267 degrees) at 5.8 MPH (5 KT) gusting to 8.1 MPH (7 KT)
Visibility    Mile(s)
Sky Conditions  clear
Temperature 72.6 F (23 C)
Dew Point 56.0 F (13 C)
Relative Humidity 56%
Pressure   30.093 in. Hg (1019 hPa)
Rain  0.00 in.
Daily Rain 0.000 in.

Station Name  Isle of Wight Weather
Longitude, Latitude  -1.27, 50.72
Elevation 45
Station URL http://www.isleofwightweather.co.uk
Software Type WeatherDisplay:10.37S